sensor_id;sensor_type;location;lat;lon;timestamp;P1;durP1;ratioP1;P2;durP2;ratioP2
74064;SDS011;62421;51.412;5.432;2023-09-19T00:01:31;23.17;;;3.28;;
74064;SDS011;62421;51.412;5.432;2023-09-19T00:03:57;14.97;;;2.97;;
74064;SDS011;62421;51.412;5.432;2023-09-19T00:06:23;14.55;;;2.20;;
74064;SDS011;62421;51.412;5.432;2023-09-19T00:08:50;12.30;;;2.33;;
74064;SDS011;62421;51.412;5.432;2023-09-19T00:11:16;14.90;;;2.40;;
74064;SDS011;62421;51.412;5.432;2023-09-19T00:13:42;11.10;;;2.50;;
74064;SDS011;62421;51.412;5.432;2023-09-19T00:16:08;15.50;;;2.65;;
74064;SDS011;62421;51.412;5.432;2023-09-19T00:18:36;14.38;;;2.85;;
74064;SDS011;62421;51.412;5.432;2023-09-19T00:21:03;14.02;;;2.65;;
74064;SDS011;62421;51.412;5.432;2023-09-19T00:23:30;12.73;;;2.35;;
74064;SDS011;62421;51.412;5.432;2023-09-19T00:25:59;11.87;;;2.40;;
74064;SDS011;62421;51.412;5.432;2023-09-19T00:28:25;12.50;;;2.72;;
74064;SDS011;62421;51.412;5.432;2023-09-19T00:30:51;15.68;;;2.67;;
74064;SDS011;62421;51.412;5.432;2023-09-19T00:33:16;16.47;;;2.40;;
74064;SDS011;62421;51.412;5.432;2023-09-19T00:36:02;19.57;;;3.03;;
74064;SDS011;62421;51.412;5.432;2023-09-19T00:38:30;18.25;;;2.80;;
74064;SDS011;62421;51.412;5.432;2023-09-19T00:40:57;17.27;;;3.30;;
74064;SDS011;62421;51.412;5.432;2023-09-19T00:43:22;16.33;;;2.07;;
74064;SDS011;62421;51.412;5.432;2023-09-19T00:45:49;14.05;;;3.03;;
74064;SDS011;62421;51.412;5.432;2023-09-19T00:48:16;14.95;;;2.38;;
74064;SDS011;62421;51.412;5.432;2023-09-19T00:50:43;16.60;;;2.30;;
74064;SDS011;62421;51.412;5.432;2023-09-19T00:53:09;21.37;;;3.00;;
74064;SDS011;62421;51.412;5.432;2023-09-19T00:55:38;13.07;;;2.20;;
74064;SDS011;62421;51.412;5.432;2023-09-19T00:58:04;13.18;;;2.70;;
74064;SDS011;62421;51.412;5.432;2023-09-19T01:00:31;17.93;;;2.73;;
74064;SDS011;62421;51.412;5.432;2023-09-19T01:02:59;12.90;;;2.22;;
74064;SDS011;62421;51.412;5.432;2023-09-19T01:05:26;14.00;;;2.50;;
74064;SDS011;62421;51.412;5.432;2023-09-19T01:07:51;11.93;;;1.93;;
74064;SDS011;62421;51.412;5.432;2023-09-19T01:10:18;16.08;;;2.42;;
74064;SDS011;62421;51.412;5.432;2023-09-19T01:20:35;14.67;;;1.87;;
74064;SDS011;62421;51.412;5.432;2023-09-19T01:23:12;11.23;;;2.35;;
74064;SDS011;62421;51.412;5.432;2023-09-19T01:25:50;14.70;;;2.25;;
74064;SDS011;62421;51.412;5.432;2023-09-19T01:28:30;14.80;;;1.98;;
74064;SDS011;62421;51.412;5.432;2023-09-19T01:31:01;13.43;;;2.13;;
74064;SDS011;62421;51.412;5.432;2023-09-19T01:33:28;14.83;;;1.77;;
74064;SDS011;62421;51.412;5.432;2023-09-19T01:36:16;9.40;;;2.03;;
74064;SDS011;62421;51.412;5.432;2023-09-19T01:38:41;14.68;;;2.90;;
74064;SDS011;62421;51.412;5.432;2023-09-19T01:41:09;17.43;;;2.33;;
74064;SDS011;62421;51.412;5.432;2023-09-19T01:43:46;13.30;;;2.85;;
74064;SDS011;62421;51.412;5.432;2023-09-19T01:46:15;15.07;;;2.40;;
74064;SDS011;62421;51.412;5.432;2023-09-19T01:51:34;11.13;;;2.67;;
74064;SDS011;62421;51.412;5.432;2023-09-19T01:54:12;14.98;;;2.45;;
74064;SDS011;62421;51.412;5.432;2023-09-19T01:56:45;9.35;;;2.60;;
74064;SDS011;62421;51.412;5.432;2023-09-19T01:59:16;15.10;;;2.55;;
74064;SDS011;62421;51.412;5.432;2023-09-19T02:01:51;13.43;;;2.27;;
74064;SDS011;62421;51.412;5.432;2023-09-19T02:04:18;12.40;;;2.90;;
74064;SDS011;62421;51.412;5.432;2023-09-19T02:06:43;15.07;;;2.20;;
74064;SDS011;62421;51.412;5.432;2023-09-19T02:09:12;10.88;;;2.90;;
74064;SDS011;62421;51.412;5.432;2023-09-19T02:11:39;13.60;;;2.58;;
74064;SDS011;62421;51.412;5.432;2023-09-19T02:14:04;13.17;;;2.67;;
74064;SDS011;62421;51.412;5.432;2023-09-19T02:16:33;9.20;;;2.10;;
74064;SDS011;62421;51.412;5.432;2023-09-19T02:18:59;13.30;;;2.92;;
74064;SDS011;62421;51.412;5.432;2023-09-19T02:21:25;17.85;;;2.78;;
74064;SDS011;62421;51.412;5.432;2023-09-19T02:23:50;11.05;;;2.65;;
74064;SDS011;62421;51.412;5.432;2023-09-19T02:26:16;12.20;;;2.60;;
74064;SDS011;62421;51.412;5.432;2023-09-19T02:28:43;12.68;;;2.47;;
74064;SDS011;62421;51.412;5.432;2023-09-19T02:31:10;20.80;;;2.60;;
74064;SDS011;62421;51.412;5.432;2023-09-19T02:33:36;15.93;;;2.30;;
74064;SDS011;62421;51.412;5.432;2023-09-19T02:36:02;17.25;;;2.95;;
74064;SDS011;62421;51.412;5.432;2023-09-19T02:38:28;14.67;;;2.60;;
74064;SDS011;62421;51.412;5.432;2023-09-19T02:40:54;12.43;;;2.58;;
74064;SDS011;62421;51.412;5.432;2023-09-19T02:43:20;14.70;;;3.03;;
74064;SDS011;62421;51.412;5.432;2023-09-19T02:45:46;8.30;;;2.00;;
74064;SDS011;62421;51.412;5.432;2023-09-19T02:48:12;10.73;;;2.50;;
74064;SDS011;62421;51.412;5.432;2023-09-19T02:50:37;12.33;;;2.77;;
74064;SDS011;62421;51.412;5.432;2023-09-19T02:53:05;12.05;;;2.47;;
74064;SDS011;62421;51.412;5.432;2023-09-19T02:55:31;18.37;;;2.27;;
74064;SDS011;62421;51.412;5.432;2023-09-19T02:57:57;15.50;;;2.95;;
74064;SDS011;62421;51.412;5.432;2023-09-19T03:00:23;11.50;;;2.37;;
74064;SDS011;62421;51.412;5.432;2023-09-19T03:02:49;8.25;;;2.10;;
74064;SDS011;62421;51.412;5.432;2023-09-19T03:05:21;12.15;;;2.55;;
74064;SDS011;62421;51.412;5.432;2023-09-19T03:07:48;12.10;;;2.13;;
74064;SDS011;62421;51.412;5.432;2023-09-19T03:10:15;11.85;;;2.00;;
74064;SDS011;62421;51.412;5.432;2023-09-19T03:12:41;8.98;;;2.33;;
74064;SDS011;62421;51.412;5.432;2023-09-19T03:15:07;12.27;;;2.03;;
74064;SDS011;62421;51.412;5.432;2023-09-19T03:17:33;12.13;;;2.65;;
74064;SDS011;62421;51.412;5.432;2023-09-19T03:19:59;8.23;;;1.97;;
74064;SDS011;62421;51.412;5.432;2023-09-19T03:22:25;7.80;;;1.73;;
74064;SDS011;62421;51.412;5.432;2023-09-19T03:24:51;12.88;;;2.80;;
74064;SDS011;62421;51.412;5.432;2023-09-19T03:27:18;11.70;;;2.13;;
74064;SDS011;62421;51.412;5.432;2023-09-19T03:29:43;12.43;;;2.33;;
74064;SDS011;62421;51.412;5.432;2023-09-19T03:32:09;8.27;;;2.10;;
74064;SDS011;62421;51.412;5.432;2023-09-19T03:34:37;12.07;;;1.95;;
74064;SDS011;62421;51.412;5.432;2023-09-19T03:37:08;16.55;;;2.13;;
74064;SDS011;62421;51.412;5.432;2023-09-19T03:39:34;12.88;;;2.10;;
74064;SDS011;62421;51.412;5.432;2023-09-19T03:41:59;9.70;;;2.37;;
74064;SDS011;62421;51.412;5.432;2023-09-19T03:44:24;10.73;;;2.40;;
74064;SDS011;62421;51.412;5.432;2023-09-19T03:46:50;10.13;;;3.03;;
74064;SDS011;62421;51.412;5.432;2023-09-19T03:49:15;12.70;;;2.37;;
74064;SDS011;62421;51.412;5.432;2023-09-19T03:51:40;6.10;;;1.73;;
74064;SDS011;62421;51.412;5.432;2023-09-19T03:54:06;14.63;;;2.55;;
74064;SDS011;62421;51.412;5.432;2023-09-19T03:56:32;16.57;;;3.33;;
74064;SDS011;62421;51.412;5.432;2023-09-19T03:58:58;15.93;;;2.53;;
74064;SDS011;62421;51.412;5.432;2023-09-19T04:01:23;9.37;;;2.50;;
74064;SDS011;62421;51.412;5.432;2023-09-19T04:03:49;12.80;;;2.33;;
74064;SDS011;62421;51.412;5.432;2023-09-19T04:06:16;16.88;;;2.17;;
74064;SDS011;62421;51.412;5.432;2023-09-19T04:08:42;12.23;;;1.88;;
74064;SDS011;62421;51.412;5.432;2023-09-19T04:11:09;12.57;;;2.43;;
74064;SDS011;62421;51.412;5.432;2023-09-19T04:13:34;10.43;;;2.35;;
74064;SDS011;62421;51.412;5.432;2023-09-19T04:16:00;15.20;;;2.93;;
74064;SDS011;62421;51.412;5.432;2023-09-19T04:18:26;18.17;;;2.90;;
74064;SDS011;62421;51.412;5.432;2023-09-19T04:20:51;13.98;;;3.30;;
74064;SDS011;62421;51.412;5.432;2023-09-19T04:23:17;10.83;;;2.00;;
74064;SDS011;62421;51.412;5.432;2023-09-19T04:25:45;17.50;;;2.30;;
74064;SDS011;62421;51.412;5.432;2023-09-19T04:28:10;22.77;;;3.20;;
74064;SDS011;62421;51.412;5.432;2023-09-19T04:30:36;15.75;;;2.50;;
74064;SDS011;62421;51.412;5.432;2023-09-19T04:33:07;15.18;;;2.70;;
74064;SDS011;62421;51.412;5.432;2023-09-19T04:35:33;15.80;;;2.50;;
74064;SDS011;62421;51.412;5.432;2023-09-19T04:37:59;23.73;;;3.45;;
74064;SDS011;62421;51.412;5.432;2023-09-19T04:40:24;17.57;;;2.60;;
74064;SDS011;62421;51.412;5.432;2023-09-19T04:42:55;12.23;;;2.00;;
74064;SDS011;62421;51.412;5.432;2023-09-19T04:45:23;17.43;;;2.30;;
74064;SDS011;62421;51.412;5.432;2023-09-19T04:47:49;11.52;;;2.90;;
74064;SDS011;62421;51.412;5.432;2023-09-19T04:50:14;16.67;;;3.13;;
74064;SDS011;62421;51.412;5.432;2023-09-19T04:52:42;20.40;;;2.78;;
74064;SDS011;62421;51.412;5.432;2023-09-19T04:55:13;12.18;;;2.08;;
74064;SDS011;62421;51.412;5.432;2023-09-19T04:57:45;14.30;;;2.38;;
74064;SDS011;62421;51.412;5.432;2023-09-19T05:00:16;9.98;;;2.38;;
74064;SDS011;62421;51.412;5.432;2023-09-19T05:02:43;12.93;;;2.27;;
74064;SDS011;62421;51.412;5.432;2023-09-19T05:05:08;13.88;;;2.28;;
74064;SDS011;62421;51.412;5.432;2023-09-19T05:07:39;14.50;;;2.60;;
74064;SDS011;62421;51.412;5.432;2023-09-19T05:10:06;8.83;;;2.00;;
74064;SDS011;62421;51.412;5.432;2023-09-19T05:12:33;12.90;;;2.60;;
74064;SDS011;62421;51.412;5.432;2023-09-19T05:14:59;15.25;;;2.30;;
74064;SDS011;62421;51.412;5.432;2023-09-19T05:17:25;13.10;;;3.35;;
74064;SDS011;62421;51.412;5.432;2023-09-19T05:19:50;12.30;;;2.13;;
74064;SDS011;62421;51.412;5.432;2023-09-19T05:22:15;15.23;;;2.73;;
74064;SDS011;62421;51.412;5.432;2023-09-19T05:24:41;13.93;;;2.70;;
74064;SDS011;62421;51.412;5.432;2023-09-19T05:27:06;12.10;;;2.30;;
74064;SDS011;62421;51.412;5.432;2023-09-19T05:29:32;13.45;;;2.67;;
74064;SDS011;62421;51.412;5.432;2023-09-19T05:31:58;16.73;;;2.47;;
74064;SDS011;62421;51.412;5.432;2023-09-19T05:34:24;15.15;;;2.42;;
74064;SDS011;62421;51.412;5.432;2023-09-19T05:36:50;10.73;;;2.17;;
74064;SDS011;62421;51.412;5.432;2023-09-19T05:39:17;12.38;;;2.20;;
74064;SDS011;62421;51.412;5.432;2023-09-19T05:41:42;16.27;;;2.75;;
74064;SDS011;62421;51.412;5.432;2023-09-19T05:44:08;13.97;;;2.57;;
74064;SDS011;62421;51.412;5.432;2023-09-19T05:46:33;14.60;;;2.60;;
74064;SDS011;62421;51.412;5.432;2023-09-19T05:48:58;22.13;;;3.20;;
74064;SDS011;62421;51.412;5.432;2023-09-19T05:51:24;15.53;;;2.47;;
74064;SDS011;62421;51.412;5.432;2023-09-19T05:53:50;16.05;;;2.40;;
74064;SDS011;62421;51.412;5.432;2023-09-19T05:56:15;15.80;;;2.33;;
74064;SDS011;62421;51.412;5.432;2023-09-19T05:58:43;16.35;;;2.38;;
74064;SDS011;62421;51.412;5.432;2023-09-19T06:01:09;15.73;;;2.53;;
74064;SDS011;62421;51.412;5.432;2023-09-19T06:03:34;16.97;;;3.27;;
74064;SDS011;62421;51.412;5.432;2023-09-19T06:06:00;11.68;;;2.55;;
74064;SDS011;62421;51.412;5.432;2023-09-19T06:08:31;15.63;;;2.87;;
74064;SDS011;62421;51.412;5.432;2023-09-19T06:10:57;22.33;;;3.65;;
74064;SDS011;62421;51.412;5.432;2023-09-19T06:13:22;18.83;;;3.60;;
74064;SDS011;62421;51.412;5.432;2023-09-19T06:15:48;14.27;;;2.58;;
74064;SDS011;62421;51.412;5.432;2023-09-19T06:18:14;13.57;;;2.33;;
74064;SDS011;62421;51.412;5.432;2023-09-19T06:20:48;16.33;;;2.33;;
74064;SDS011;62421;51.412;5.432;2023-09-19T06:23:15;12.97;;;2.20;;
74064;SDS011;62421;51.412;5.432;2023-09-19T06:25:42;16.75;;;2.30;;
74064;SDS011;62421;51.412;5.432;2023-09-19T06:28:08;18.13;;;2.22;;
74064;SDS011;62421;51.412;5.432;2023-09-19T06:30:37;16.08;;;3.28;;
74064;SDS011;62421;51.412;5.432;2023-09-19T06:33:05;10.95;;;2.47;;
74064;SDS011;62421;51.412;5.432;2023-09-19T06:35:31;14.20;;;2.27;;
74064;SDS011;62421;51.412;5.432;2023-09-19T06:37:58;11.43;;;2.60;;
74064;SDS011;62421;51.412;5.432;2023-09-19T06:40:23;17.57;;;2.87;;
74064;SDS011;62421;51.412;5.432;2023-09-19T06:42:52;11.97;;;2.60;;
74064;SDS011;62421;51.412;5.432;2023-09-19T06:45:19;12.23;;;2.42;;
74064;SDS011;62421;51.412;5.432;2023-09-19T06:47:46;11.75;;;2.50;;
74064;SDS011;62421;51.412;5.432;2023-09-19T06:50:15;14.32;;;2.63;;
74064;SDS011;62421;51.412;5.432;2023-09-19T06:52:44;18.77;;;2.65;;
74064;SDS011;62421;51.412;5.432;2023-09-19T06:55:11;14.10;;;3.30;;
74064;SDS011;62421;51.412;5.432;2023-09-19T06:57:38;14.20;;;3.05;;
74064;SDS011;62421;51.412;5.432;2023-09-19T07:00:05;14.77;;;2.58;;
74064;SDS011;62421;51.412;5.432;2023-09-19T07:02:41;18.52;;;2.95;;
74064;SDS011;62421;51.412;5.432;2023-09-19T07:05:07;17.13;;;2.30;;
74064;SDS011;62421;51.412;5.432;2023-09-19T07:07:32;24.63;;;2.63;;
74064;SDS011;62421;51.412;5.432;2023-09-19T07:10:00;10.07;;;2.20;;
74064;SDS011;62421;51.412;5.432;2023-09-19T07:12:26;15.80;;;3.10;;
74064;SDS011;62421;51.412;5.432;2023-09-19T07:14:51;15.32;;;2.53;;
74064;SDS011;62421;51.412;5.432;2023-09-19T07:17:16;17.87;;;2.30;;
74064;SDS011;62421;51.412;5.432;2023-09-19T07:19:44;13.63;;;2.17;;
74064;SDS011;62421;51.412;5.432;2023-09-19T07:22:10;15.35;;;2.00;;
74064;SDS011;62421;51.412;5.432;2023-09-19T07:24:35;13.47;;;2.50;;
74064;SDS011;62421;51.412;5.432;2023-09-19T07:27:01;15.02;;;2.67;;
74064;SDS011;62421;51.412;5.432;2023-09-19T07:29:27;15.32;;;2.95;;
74064;SDS011;62421;51.412;5.432;2023-09-19T07:31:53;12.23;;;3.13;;
74064;SDS011;62421;51.412;5.432;2023-09-19T07:34:18;14.17;;;2.97;;
74064;SDS011;62421;51.412;5.432;2023-09-19T07:36:45;13.18;;;2.72;;
74064;SDS011;62421;51.412;5.432;2023-09-19T07:39:12;13.18;;;2.58;;
74064;SDS011;62421;51.412;5.432;2023-09-19T07:41:37;13.93;;;2.60;;
74064;SDS011;62421;51.412;5.432;2023-09-19T07:44:03;10.07;;;2.00;;
74064;SDS011;62421;51.412;5.432;2023-09-19T07:46:28;11.95;;;2.10;;
74064;SDS011;62421;51.412;5.432;2023-09-19T07:48:56;20.10;;;2.50;;
74064;SDS011;62421;51.412;5.432;2023-09-19T07:51:21;17.85;;;2.30;;
74064;SDS011;62421;51.412;5.432;2023-09-19T07:53:47;10.93;;;2.27;;
74064;SDS011;62421;51.412;5.432;2023-09-19T07:56:13;19.58;;;2.42;;
74064;SDS011;62421;51.412;5.432;2023-09-19T07:58:39;16.10;;;2.77;;
74064;SDS011;62421;51.412;5.432;2023-09-19T08:01:06;14.57;;;2.65;;
74064;SDS011;62421;51.412;5.432;2023-09-19T08:03:33;12.77;;;2.53;;
74064;SDS011;62421;51.412;5.432;2023-09-19T08:05:59;24.17;;;2.63;;
74064;SDS011;62421;51.412;5.432;2023-09-19T08:08:25;20.50;;;3.10;;
74064;SDS011;62421;51.412;5.432;2023-09-19T08:10:55;15.35;;;2.20;;
74064;SDS011;62421;51.412;5.432;2023-09-19T08:13:22;10.73;;;2.20;;
74064;SDS011;62421;51.412;5.432;2023-09-19T08:15:48;16.73;;;2.43;;
74064;SDS011;62421;51.412;5.432;2023-09-19T08:18:14;18.80;;;4.22;;
74064;SDS011;62421;51.412;5.432;2023-09-19T08:20:40;18.73;;;3.13;;
74064;SDS011;62421;51.412;5.432;2023-09-19T08:23:07;10.75;;;1.95;;
74064;SDS011;62421;51.412;5.432;2023-09-19T08:25:33;15.55;;;3.05;;
74064;SDS011;62421;51.412;5.432;2023-09-19T08:27:59;21.25;;;2.63;;
74064;SDS011;62421;51.412;5.432;2023-09-19T08:30:26;15.50;;;2.35;;
74064;SDS011;62421;51.412;5.432;2023-09-19T08:33:01;11.20;;;2.13;;
74064;SDS011;62421;51.412;5.432;2023-09-19T08:35:29;16.63;;;2.05;;
74064;SDS011;62421;51.412;5.432;2023-09-19T08:37:55;13.07;;;2.30;;
74064;SDS011;62421;51.412;5.432;2023-09-19T08:40:21;15.45;;;2.10;;
74064;SDS011;62421;51.412;5.432;2023-09-19T08:42:56;18.30;;;2.67;;
74064;SDS011;62421;51.412;5.432;2023-09-19T08:45:22;17.58;;;2.70;;
74064;SDS011;62421;51.412;5.432;2023-09-19T08:50:30;16.77;;;2.08;;
74064;SDS011;62421;51.412;5.432;2023-09-19T08:52:56;15.50;;;3.03;;
74064;SDS011;62421;51.412;5.432;2023-09-19T08:55:29;16.23;;;2.38;;
74064;SDS011;62421;51.412;5.432;2023-09-19T08:57:59;16.95;;;2.50;;
74064;SDS011;62421;51.412;5.432;2023-09-19T09:00:28;13.95;;;2.80;;
74064;SDS011;62421;51.412;5.432;2023-09-19T09:02:54;20.87;;;2.73;;
74064;SDS011;62421;51.412;5.432;2023-09-19T09:05:22;12.18;;;2.08;;
74064;SDS011;62421;51.412;5.432;2023-09-19T09:07:51;15.23;;;3.03;;
74064;SDS011;62421;51.412;5.432;2023-09-19T09:10:18;13.05;;;2.20;;
74064;SDS011;62421;51.412;5.432;2023-09-19T09:12:47;17.27;;;3.33;;
74064;SDS011;62421;51.412;5.432;2023-09-19T09:15:17;15.40;;;2.60;;
74064;SDS011;62421;51.412;5.432;2023-09-19T09:17:49;9.73;;;2.40;;
74064;SDS011;62421;51.412;5.432;2023-09-19T09:20:19;16.48;;;2.45;;
74064;SDS011;62421;51.412;5.432;2023-09-19T09:22:51;17.02;;;3.17;;
74064;SDS011;62421;51.412;5.432;2023-09-19T09:25:18;16.00;;;2.97;;
74064;SDS011;62421;51.412;5.432;2023-09-19T09:27:45;18.07;;;2.23;;
74064;SDS011;62421;51.412;5.432;2023-09-19T09:30:35;13.43;;;2.10;;
74064;SDS011;62421;51.412;5.432;2023-09-19T09:33:09;18.67;;;2.90;;
74064;SDS011;62421;51.412;5.432;2023-09-19T09:38:46;23.52;;;2.25;;
74064;SDS011;62421;51.412;5.432;2023-09-19T09:41:19;20.17;;;2.90;;
74064;SDS011;62421;51.412;5.432;2023-09-19T09:44:11;19.05;;;2.80;;
74064;SDS011;62421;51.412;5.432;2023-09-19T09:46:43;14.48;;;2.30;;
74064;SDS011;62421;51.412;5.432;2023-09-19T09:49:18;10.53;;;1.90;;
74064;SDS011;62421;51.412;5.432;2023-09-19T09:54:32;15.50;;;2.25;;
74064;SDS011;62421;51.412;5.432;2023-09-19T09:57:02;15.32;;;2.13;;
74064;SDS011;62421;51.412;5.432;2023-09-19T09:59:56;14.93;;;2.25;;
74064;SDS011;62421;51.412;5.432;2023-09-19T10:02:37;13.43;;;2.30;;
74064;SDS011;62421;51.412;5.432;2023-09-19T10:05:14;15.68;;;2.88;;
74064;SDS011;62421;51.412;5.432;2023-09-19T10:07:53;17.40;;;2.40;;
74064;SDS011;62421;51.412;5.432;2023-09-19T10:10:39;12.50;;;2.25;;
74064;SDS011;62421;51.412;5.432;2023-09-19T10:13:09;15.65;;;2.60;;
74064;SDS011;62421;51.412;5.432;2023-09-19T10:15:42;16.23;;;2.27;;
74064;SDS011;62421;51.412;5.432;2023-09-19T10:18:15;11.18;;;2.65;;
74064;SDS011;62421;51.412;5.432;2023-09-19T10:20:53;12.57;;;2.08;;
74064;SDS011;62421;51.412;5.432;2023-09-19T10:23:21;16.33;;;2.13;;
74064;SDS011;62421;51.412;5.432;2023-09-19T10:25:51;19.98;;;2.92;;
74064;SDS011;62421;51.412;5.432;2023-09-19T10:28:17;15.23;;;2.90;;
74064;SDS011;62421;51.412;5.432;2023-09-19T10:30:55;12.45;;;3.15;;
74064;SDS011;62421;51.412;5.432;2023-09-19T10:33:24;15.48;;;2.42;;
74064;SDS011;62421;51.412;5.432;2023-09-19T10:35:54;12.52;;;2.17;;
74064;SDS011;62421;51.412;5.432;2023-09-19T10:38:25;12.38;;;1.77;;
74064;SDS011;62421;51.412;5.432;2023-09-19T10:40:54;11.73;;;2.20;;
74064;SDS011;62421;51.412;5.432;2023-09-19T10:43:25;14.15;;;2.22;;
74064;SDS011;62421;51.412;5.432;2023-09-19T10:45:54;16.25;;;1.88;;
74064;SDS011;62421;51.412;5.432;2023-09-19T10:48:25;15.15;;;2.28;;
74064;SDS011;62421;51.412;5.432;2023-09-19T10:50:51;12.00;;;2.60;;
74064;SDS011;62421;51.412;5.432;2023-09-19T10:53:29;12.00;;;1.92;;
74064;SDS011;62421;51.412;5.432;2023-09-19T10:56:05;14.07;;;2.22;;
74064;SDS011;62421;51.412;5.432;2023-09-19T10:58:35;14.03;;;2.00;;
74064;SDS011;62421;51.412;5.432;2023-09-19T11:01:04;13.10;;;2.13;;
74064;SDS011;62421;51.412;5.432;2023-09-19T11:03:37;13.27;;;2.83;;
74064;SDS011;62421;51.412;5.432;2023-09-19T11:06:12;14.18;;;1.98;;
74064;SDS011;62421;51.412;5.432;2023-09-19T11:09:00;14.85;;;1.60;;
74064;SDS011;62421;51.412;5.432;2023-09-19T11:11:50;9.67;;;1.70;;
74064;SDS011;62421;51.412;5.432;2023-09-19T11:30:34;13.45;;;2.53;;
74064;SDS011;62421;51.412;5.432;2023-09-19T11:36:08;11.23;;;1.77;;
74064;SDS011;62421;51.412;5.432;2023-09-19T11:46:25;9.90;;;1.98;;
74064;SDS011;62421;51.412;5.432;2023-09-19T11:48:51;9.05;;;1.70;;
74064;SDS011;62421;51.412;5.432;2023-09-19T11:51:21;12.43;;;1.60;;
74064;SDS011;62421;51.412;5.432;2023-09-19T11:53:52;11.10;;;1.50;;
74064;SDS011;62421;51.412;5.432;2023-09-19T11:56:23;11.85;;;1.65;;
74064;SDS011;62421;51.412;5.432;2023-09-19T11:58:52;8.60;;;1.20;;
74064;SDS011;62421;51.412;5.432;2023-09-19T12:01:23;8.95;;;1.73;;
74064;SDS011;62421;51.412;5.432;2023-09-19T12:03:54;13.52;;;1.98;;
74064;SDS011;62421;51.412;5.432;2023-09-19T12:06:23;7.40;;;1.60;;
74064;SDS011;62421;51.412;5.432;2023-09-19T12:08:49;10.50;;;1.67;;
74064;SDS011;62421;51.412;5.432;2023-09-19T12:11:18;8.57;;;1.42;;
74064;SDS011;62421;51.412;5.432;2023-09-19T12:13:46;9.75;;;1.35;;
74064;SDS011;62421;51.412;5.432;2023-09-19T12:18:40;7.73;;;1.40;;
74064;SDS011;62421;51.412;5.432;2023-09-19T12:21:06;5.93;;;1.63;;
74064;SDS011;62421;51.412;5.432;2023-09-19T12:23:37;10.15;;;1.40;;
74064;SDS011;62421;51.412;5.432;2023-09-19T12:26:06;8.15;;;1.30;;
74064;SDS011;62421;51.412;5.432;2023-09-19T12:28:38;8.88;;;1.92;;
74064;SDS011;62421;51.412;5.432;2023-09-19T12:31:07;6.40;;;1.37;;
74064;SDS011;62421;51.412;5.432;2023-09-19T12:33:33;7.90;;;1.75;;
74064;SDS011;62421;51.412;5.432;2023-09-19T12:36:00;9.85;;;1.50;;
74064;SDS011;62421;51.412;5.432;2023-09-19T12:38:28;9.02;;;1.80;;
74064;SDS011;62421;51.412;5.432;2023-09-19T12:40:57;10.17;;;1.93;;
74064;SDS011;62421;51.412;5.432;2023-09-19T12:43:25;13.15;;;1.80;;
74064;SDS011;62421;51.412;5.432;2023-09-19T12:45:52;9.82;;;1.40;;
74064;SDS011;62421;51.412;5.432;2023-09-19T12:48:25;7.38;;;1.20;;
74064;SDS011;62421;51.412;5.432;2023-09-19T12:53:44;7.33;;;1.50;;
74064;SDS011;62421;51.412;5.432;2023-09-19T12:56:16;8.15;;;1.25;;
74064;SDS011;62421;51.412;5.432;2023-09-19T13:01:15;7.25;;;1.38;;
74064;SDS011;62421;51.412;5.432;2023-09-19T13:03:41;7.00;;;1.25;;
74064;SDS011;62421;51.412;5.432;2023-09-19T13:06:07;7.47;;;1.10;;
74064;SDS011;62421;51.412;5.432;2023-09-19T13:08:35;6.50;;;1.55;;
74064;SDS011;62421;51.412;5.432;2023-09-19T13:16:07;6.77;;;1.20;;
74064;SDS011;62421;51.412;5.432;2023-09-19T13:18:41;13.60;;;2.35;;
74064;SDS011;62421;51.412;5.432;2023-09-19T13:21:12;18.90;;;2.00;;
74064;SDS011;62421;51.412;5.432;2023-09-19T13:23:50;7.82;;;1.00;;
74064;SDS011;62421;51.412;5.432;2023-09-19T13:26:17;8.52;;;1.55;;
74064;SDS011;62421;51.412;5.432;2023-09-19T13:28:43;19.23;;;1.87;;
74064;SDS011;62421;51.412;5.432;2023-09-19T13:31:09;15.25;;;1.88;;
74064;SDS011;62421;51.412;5.432;2023-09-19T13:33:42;10.00;;;1.67;;
74064;SDS011;62421;51.412;5.432;2023-09-19T13:36:08;8.23;;;1.08;;
74064;SDS011;62421;51.412;5.432;2023-09-19T13:38:34;14.10;;;1.63;;
74064;SDS011;62421;51.412;5.432;2023-09-19T13:41:00;12.13;;;1.50;;
74064;SDS011;62421;51.412;5.432;2023-09-19T13:43:26;13.65;;;1.70;;
74064;SDS011;62421;51.412;5.432;2023-09-19T13:45:51;5.60;;;0.70;;
74064;SDS011;62421;51.412;5.432;2023-09-19T13:48:17;12.73;;;2.20;;
74064;SDS011;62421;51.412;5.432;2023-09-19T13:50:45;11.25;;;1.52;;
74064;SDS011;62421;51.412;5.432;2023-09-19T13:53:10;22.73;;;1.77;;
74064;SDS011;62421;51.412;5.432;2023-09-19T13:55:36;16.50;;;1.70;;
74064;SDS011;62421;51.412;5.432;2023-09-19T13:58:03;6.40;;;1.20;;
74064;SDS011;62421;51.412;5.432;2023-09-19T14:00:31;9.65;;;1.65;;
74064;SDS011;62421;51.412;5.432;2023-09-19T14:03:02;4.95;;;0.95;;
74064;SDS011;62421;51.412;5.432;2023-09-19T14:05:29;3.92;;;1.08;;
74064;SDS011;62421;51.412;5.432;2023-09-19T14:07:55;8.83;;;1.30;;
74064;SDS011;62421;51.412;5.432;2023-09-19T14:10:21;7.05;;;1.35;;
74064;SDS011;62421;51.412;5.432;2023-09-19T14:12:46;8.80;;;1.30;;
74064;SDS011;62421;51.412;5.432;2023-09-19T14:15:12;9.25;;;1.08;;
74064;SDS011;62421;51.412;5.432;2023-09-19T14:17:38;5.88;;;1.17;;
74064;SDS011;62421;51.412;5.432;2023-09-19T14:20:07;5.40;;;1.00;;
74064;SDS011;62421;51.412;5.432;2023-09-19T14:22:35;8.85;;;1.48;;
74064;SDS011;62421;51.412;5.432;2023-09-19T14:25:01;11.33;;;1.37;;
74064;SDS011;62421;51.412;5.432;2023-09-19T14:27:26;7.67;;;1.57;;
74064;SDS011;62421;51.412;5.432;2023-09-19T14:29:51;12.03;;;1.60;;
74064;SDS011;62421;51.412;5.432;2023-09-19T14:32:17;6.78;;;1.02;;
74064;SDS011;62421;51.412;5.432;2023-09-19T14:34:43;7.67;;;1.40;;
74064;SDS011;62421;51.412;5.432;2023-09-19T14:37:09;7.93;;;1.70;;
74064;SDS011;62421;51.412;5.432;2023-09-19T14:39:36;8.95;;;2.10;;
74064;SDS011;62421;51.412;5.432;2023-09-19T14:42:03;4.95;;;1.20;;
74064;SDS011;62421;51.412;5.432;2023-09-19T14:44:29;9.40;;;1.37;;
74064;SDS011;62421;51.412;5.432;2023-09-19T14:46:55;5.03;;;1.30;;
74064;SDS011;62421;51.412;5.432;2023-09-19T14:49:20;5.03;;;0.82;;
74064;SDS011;62421;51.412;5.432;2023-09-19T14:51:45;6.53;;;1.20;;
74064;SDS011;62421;51.412;5.432;2023-09-19T14:54:13;7.38;;;1.38;;
74064;SDS011;62421;51.412;5.432;2023-09-19T14:56:41;18.35;;;1.83;;
74064;SDS011;62421;51.412;5.432;2023-09-19T14:59:07;8.80;;;1.77;;
74064;SDS011;62421;51.412;5.432;2023-09-19T15:01:32;11.60;;;1.20;;
74064;SDS011;62421;51.412;5.432;2023-09-19T15:03:57;7.30;;;1.67;;
74064;SDS011;62421;51.412;5.432;2023-09-19T15:06:23;7.40;;;1.80;;
74064;SDS011;62421;51.412;5.432;2023-09-19T15:08:48;9.50;;;1.85;;
74064;SDS011;62421;51.412;5.432;2023-09-19T15:11:15;8.20;;;1.80;;
74064;SDS011;62421;51.412;5.432;2023-09-19T15:13:42;6.32;;;1.58;;
74064;SDS011;62421;51.412;5.432;2023-09-19T15:16:09;22.35;;;1.73;;
74064;SDS011;62421;51.412;5.432;2023-09-19T15:18:35;10.27;;;1.70;;
74064;SDS011;62421;51.412;5.432;2023-09-19T15:21:06;4.60;;;1.30;;
74064;SDS011;62421;51.412;5.432;2023-09-19T15:23:33;5.10;;;1.50;;
74064;SDS011;62421;51.412;5.432;2023-09-19T15:26:10;9.50;;;1.17;;
74064;SDS011;62421;51.412;5.432;2023-09-19T15:28:37;7.38;;;1.15;;
74064;SDS011;62421;51.412;5.432;2023-09-19T15:31:03;7.15;;;1.52;;
74064;SDS011;62421;51.412;5.432;2023-09-19T15:33:31;14.13;;;1.50;;
74064;SDS011;62421;51.412;5.432;2023-09-19T15:36:00;8.15;;;1.42;;
74064;SDS011;62421;51.412;5.432;2023-09-19T15:38:28;9.55;;;1.40;;
74064;SDS011;62421;51.412;5.432;2023-09-19T15:40:53;5.97;;;1.30;;
74064;SDS011;62421;51.412;5.432;2023-09-19T15:43:19;8.13;;;1.67;;